Time;durP1;ratioP1;P1;durP2;ratioP2;P2;SDS_P1;SDS_P2;PMS_P1;PMS_P2;Temp;Humidity;BMP_temperature;BMP_pressure;BME280_temperature;BME280_humidity;BME280_pressure;Samples;Min_cycle;Max_cycle;Signal;HPM_P1;HPM_P2
2022/09/27 00:01:59;;;;;;;0.50;0.50;;;;;;;;;;5034279;28;20252;-88
2022/09/27 00:04:27;;;;;;;0.90;0.90;;;;;;;;;;5052849;28;20697;-87
2022/09/27 00:06:55;;;;;;;0.60;0.60;;;;;;;;;;5040138;28;20632;-87
2022/09/27 00:09:22;;;;;;;0.90;0.90;;;;;;;;;;5054461;28;20263;-88
2022/09/27 00:11:50;;;;;;;0.75;0.75;;;;;;;;;;5053876;28;20243;-88
2022/09/27 00:14:18;;;;;;;0.73;0.73;;;;;;;;;;5053731;28;20225;-88
2022/09/27 00:16:47;;;;;;;0.80;0.80;;;;;;;;;;5053690;28;20267;-88
2022/09/27 00:19:19;;;;;;;0.60;0.60;;;;;;;;;;5053290;28;20206;-87
2022/09/27 00:21:47;;;;;;;0.60;0.60;;;;;;;;;;5053917;28;20259;-88
2022/09/27 00:24:17;;;;;;;0.50;0.50;;;;;;;;;;5053827;28;20222;-88
2022/09/27 00:26:45;;;;;;;0.65;0.65;;;;;;;;;;5053810;28;20562;-89
2022/09/27 00:29:13;;;;;;;0.50;0.50;;;;;;;;;;5053449;28;20201;-88
2022/09/27 00:31:41;;;;;;;0.70;0.70;;;;;;;;;;5053550;28;20194;-87
2022/09/27 00:34:23;;;;;;;0.60;0.60;;;;;;;;;;5053512;28;20286;-87
2022/09/27 00:36:52;;;;;;;0.50;0.50;;;;;;;;;;5053582;28;20234;-88
2022/09/27 00:39:20;;;;;;;0.57;0.45;;;;;;;;;;5053385;28;20197;-88
2022/09/27 00:41:48;;;;;;;0.52;0.52;;;;;;;;;;5053653;28;20233;-88
2022/09/27 00:45:01;;;;;;;0.85;0.60;;;;;;;;;;5053049;28;20237;-89
2022/09/27 00:47:36;;;;;;;0.52;0.52;;;;;;;;;;4972742;28;20646;-87
2022/09/27 00:50:13;;;;;;;0.50;0.50;;;;;;;;;;5028696;28;20201;-87
2022/09/27 00:56:26;;;;;;;0.30;0.30;;;;;;;;;;5053000;28;20606;-88
2022/09/27 00:58:58;;;;;;;0.50;0.50;;;;;;;;;;5053291;28;20186;-89
2022/09/27 01:01:25;;;;;;;0.40;0.40;;;;;;;;;;5053142;28;20202;-88
2022/09/27 01:03:57;;;;;;;0.40;0.40;;;;;;;;;;5048113;28;20205;-88
2022/09/27 01:06:26;;;;;;;0.60;0.60;;;;;;;;;;5053212;28;20583;-87
2022/09/27 01:08:53;;;;;;;0.30;0.30;;;;;;;;;;5052662;28;20197;-88
2022/09/27 01:11:38;;;;;;;0.40;0.40;;;;;;;;;;5052681;28;20206;-87
2022/09/27 01:14:34;;;;;;;0.40;0.40;;;;;;;;;;5054402;28;20326;-88
2022/09/27 01:17:24;;;;;;;0.43;0.43;;;;;;;;;;5040588;28;20237;-87
2022/09/27 01:20:22;;;;;;;0.57;0.50;;;;;;;;;;5053479;28;20609;-86
2022/09/27 01:23:04;;;;;;;0.30;0.30;;;;;;;;;;5052691;28;20255;-87
2022/09/27 01:25:52;;;;;;;0.40;0.40;;;;;;;;;;5053083;28;20217;-87
2022/09/27 01:28:25;;;;;;;1.38;0.50;;;;;;;;;;5053370;28;20221;-87
2022/09/27 01:30:59;;;;;;;0.70;0.70;;;;;;;;;;5062528;28;20216;-87
2022/09/27 01:33:44;;;;;;;0.40;0.40;;;;;;;;;;5052300;28;20202;-88
2022/09/27 01:36:22;;;;;;;0.63;0.63;;;;;;;;;;5051125;28;20213;-88
2022/09/27 01:39:03;;;;;;;0.50;0.50;;;;;;;;;;5052535;28;20274;-87
2022/09/27 01:41:37;;;;;;;0.50;0.50;;;;;;;;;;5053481;28;20279;-87
2022/09/27 01:44:07;;;;;;;0.77;0.70;;;;;;;;;;5052987;28;20695;-87
2022/09/27 01:46:39;;;;;;;0.80;0.80;;;;;;;;;;5052741;28;20190;-87
2022/09/27 01:49:15;;;;;;;0.70;0.70;;;;;;;;;;5047221;28;20603;-87
2022/09/27 01:51:47;;;;;;;0.63;0.63;;;;;;;;;;5053121;28;20524;-87
2022/09/27 01:54:19;;;;;;;0.80;0.80;;;;;;;;;;5044303;28;20286;-87
2022/09/27 01:56:51;;;;;;;1.02;0.70;;;;;;;;;;5036543;28;20250;-88
2022/09/27 01:59:24;;;;;;;0.77;0.63;;;;;;;;;;5052964;28;20208;-86
2022/09/27 02:01:54;;;;;;;0.70;0.70;;;;;;;;;;5034578;28;20285;-87
2022/09/27 02:04:24;;;;;;;0.80;0.80;;;;;;;;;;5043296;28;20284;-87
2022/09/27 02:06:58;;;;;;;0.80;0.80;;;;;;;;;;5033227;28;20191;-87
2022/09/27 02:09:31;;;;;;;0.70;0.70;;;;;;;;;;5038616;28;20622;-87
2022/09/27 02:12:02;;;;;;;1.48;1.05;;;;;;;;;;5053184;28;20217;-86
2022/09/27 02:14:34;;;;;;;0.98;0.77;;;;;;;;;;5052456;28;20263;-87
2022/09/27 02:17:12;;;;;;;0.90;0.90;;;;;;;;;;5052649;28;20214;-87
2022/09/27 02:19:47;;;;;;;0.90;0.90;;;;;;;;;;5052631;28;20577;-87
2022/09/27 02:22:19;;;;;;;2.15;1.55;;;;;;;;;;5052694;28;20213;-87
2022/09/27 02:24:53;;;;;;;0.90;0.90;;;;;;;;;;5052711;28;20214;-87
2022/09/27 02:27:26;;;;;;;0.93;0.90;;;;;;;;;;5054044;28;20201;-88
2022/09/27 02:30:00;;;;;;;1.35;0.98;;;;;;;;;;5067011;28;20198;-88
2022/09/27 02:32:29;;;;;;;1.15;1.10;;;;;;;;;;5065772;28;20200;-86
2022/09/27 02:34:59;;;;;;;1.20;1.10;;;;;;;;;;5067730;28;20233;-91
2022/09/27 02:37:27;;;;;;;2.53;1.08;;;;;;;;;;5076818;28;20178;-87
2022/09/27 02:39:55;;;;;;;0.77;0.77;;;;;;;;;;5075668;28;20186;-90
2022/09/27 02:42:22;;;;;;;1.15;1.05;;;;;;;;;;5077148;28;20232;-87
2022/09/27 02:44:50;;;;;;;0.70;0.70;;;;;;;;;;5064291;28;20268;-89
2022/09/27 02:47:43;;;;;;;0.73;0.73;;;;;;;;;;5076660;28;20201;-87
2022/09/27 02:50:36;;;;;;;0.80;0.80;;;;;;;;;;5067901;28;20205;-90
2022/09/27 02:53:10;;;;;;;0.90;0.90;;;;;;;;;;5061536;28;20202;-89
2022/09/27 02:55:53;;;;;;;0.95;0.95;;;;;;;;;;5077786;28;20201;-88
2022/09/27 02:58:30;;;;;;;2.58;1.10;;;;;;;;;;5074936;28;20198;-88
2022/09/27 03:01:05;;;;;;;0.85;0.85;;;;;;;;;;5069640;28;20189;-89
2022/09/27 03:03:39;;;;;;;1.05;1.05;;;;;;;;;;5066453;28;20178;-88
2022/09/27 03:06:09;;;;;;;0.80;0.80;;;;;;;;;;5071587;28;20193;-88
2022/09/27 03:08:38;;;;;;;0.85;0.85;;;;;;;;;;5076948;28;20174;-87
2022/09/27 03:11:06;;;;;;;0.70;0.70;;;;;;;;;;5069798;28;20202;-87
2022/09/27 03:13:35;;;;;;;1.05;1.00;;;;;;;;;;5057667;28;20268;-88
2022/09/27 03:16:03;;;;;;;1.23;1.13;;;;;;;;;;5075241;28;20217;-88
2022/09/27 03:18:30;;;;;;;0.90;0.90;;;;;;;;;;5073948;28;20189;-88
2022/09/27 03:21:00;;;;;;;0.90;0.90;;;;;;;;;;5049255;28;20260;-87
2022/09/27 03:23:27;;;;;;;1.85;0.90;;;;;;;;;;5059162;28;20220;-88
2022/09/27 03:25:55;;;;;;;0.88;0.70;;;;;;;;;;5063263;28;20617;-88
2022/09/27 03:28:24;;;;;;;0.93;0.90;;;;;;;;;;5054875;28;20190;-88
2022/09/27 03:30:51;;;;;;;0.77;0.77;;;;;;;;;;5045230;28;20256;-87
2022/09/27 03:33:19;;;;;;;1.02;1.00;;;;;;;;;;5045727;28;20205;-87
2022/09/27 03:35:47;;;;;;;0.80;0.80;;;;;;;;;;5054986;28;20233;-87
2022/09/27 03:38:16;;;;;;;0.93;0.60;;;;;;;;;;5054575;28;20213;-87
2022/09/27 03:40:43;;;;;;;0.93;0.93;;;;;;;;;;5055008;28;20604;-86
2022/09/27 03:43:11;;;;;;;0.80;0.80;;;;;;;;;;5054877;28;20198;-86
2022/09/27 03:45:39;;;;;;;1.65;0.90;;;;;;;;;;5054127;28;20213;-87
2022/09/27 03:48:06;;;;;;;3.13;0.85;;;;;;;;;;5054707;28;20630;-88
2022/09/27 03:50:34;;;;;;;0.75;0.70;;;;;;;;;;5054838;28;20662;-88
2022/09/27 03:53:02;;;;;;;0.95;0.80;;;;;;;;;;5054768;28;20205;-87
2022/09/27 03:55:31;;;;;;;1.00;0.90;;;;;;;;;;5054289;28;20274;-87
2022/09/27 03:57:59;;;;;;;0.80;0.80;;;;;;;;;;5054628;28;20193;-88
2022/09/27 04:00:27;;;;;;;5.20;0.68;;;;;;;;;;5054660;28;20723;-87
2022/09/27 04:02:55;;;;;;;0.82;0.80;;;;;;;;;;5054588;28;20210;-86
2022/09/27 04:05:23;;;;;;;0.70;0.63;;;;;;;;;;5044964;28;20564;-87
2022/09/27 04:07:50;;;;;;;0.70;0.70;;;;;;;;;;5034338;28;20209;-86
2022/09/27 04:10:18;;;;;;;0.60;0.60;;;;;;;;;;5046422;28;20622;-87
2022/09/27 04:12:47;;;;;;;0.80;0.80;;;;;;;;;;5054117;28;20209;-87
2022/09/27 04:15:15;;;;;;;0.60;0.60;;;;;;;;;;5050593;28;20222;-86
2022/09/27 04:17:43;;;;;;;0.40;0.40;;;;;;;;;;5053868;28;20225;-87
2022/09/27 04:20:11;;;;;;;0.65;0.52;;;;;;;;;;5053662;28;20236;-86
2022/09/27 04:22:42;;;;;;;0.50;0.50;;;;;;;;;;5053983;28;20249;-87
2022/09/27 04:25:11;;;;;;;0.43;0.40;;;;;;;;;;5053744;28;20222;-86
2022/09/27 04:27:39;;;;;;;0.52;0.52;;;;;;;;;;5053883;28;20198;-86
2022/09/27 04:30:10;;;;;;;0.85;0.55;;;;;;;;;;5053686;28;20288;-86
2022/09/27 04:32:42;;;;;;;0.80;0.70;;;;;;;;;;5053816;28;20646;-86
2022/09/27 04:37:55;;;;;;;0.45;0.45;;;;;;;;;;5033599;28;20237;-86
2022/09/27 04:40:23;;;;;;;0.93;0.93;;;;;;;;;;5045545;28;20198;-87
2022/09/27 04:42:51;;;;;;;0.60;0.50;;;;;;;;;;5053243;28;20552;-87
2022/09/27 04:45:21;;;;;;;0.50;0.50;;;;;;;;;;5053655;28;20276;-85
2022/09/27 04:47:50;;;;;;;0.50;0.50;;;;;;;;;;5054328;28;20208;-85
2022/09/27 04:50:19;;;;;;;0.60;0.60;;;;;;;;;;5044203;28;20716;-85
2022/09/27 04:52:52;;;;;;;0.63;0.60;;;;;;;;;;5048696;28;20202;-85
2022/09/27 04:55:20;;;;;;;0.98;0.90;;;;;;;;;;5053208;28;20267;-85
2022/09/27 04:57:48;;;;;;;0.88;0.88;;;;;;;;;;5052646;28;20249;-85
2022/09/27 05:00:17;;;;;;;1.33;1.00;;;;;;;;;;5053169;28;20226;-86
2022/09/27 05:02:47;;;;;;;0.90;0.60;;;;;;;;;;5052432;28;20213;-85
2022/09/27 05:05:15;;;;;;;0.70;0.70;;;;;;;;;;5049314;28;20217;-84
2022/09/27 05:07:42;;;;;;;1.13;0.80;;;;;;;;;;5042603;28;20636;-85
2022/09/27 05:10:10;;;;;;;0.82;0.82;;;;;;;;;;5053380;28;20193;-86
2022/09/27 05:12:38;;;;;;;0.88;0.88;;;;;;;;;;5053342;28;20233;-85
2022/09/27 05:15:07;;;;;;;3.45;0.85;;;;;;;;;;5052406;28;20225;-86
2022/09/27 05:17:35;;;;;;;1.17;0.80;;;;;;;;;;5047664;28;20222;-86
2022/09/27 05:20:05;;;;;;;0.90;0.90;;;;;;;;;;5047306;28;20206;-85
2022/09/27 05:22:33;;;;;;;1.00;1.00;;;;;;;;;;5051395;28;20594;-82
2022/09/27 05:25:01;;;;;;;0.88;0.70;;;;;;;;;;5054606;28;20225;-81
2022/09/27 05:27:29;;;;;;;0.60;0.60;;;;;;;;;;5056155;28;20620;-82
2022/09/27 05:29:59;;;;;;;1.00;0.90;;;;;;;;;;5046148;28;20217;-81
2022/09/27 05:32:27;;;;;;;0.75;0.75;;;;;;;;;;5051775;28;20263;-82
2022/09/27 05:34:54;;;;;;;0.70;0.70;;;;;;;;;;5046046;28;20763;-81
2022/09/27 05:37:24;;;;;;;1.08;1.02;;;;;;;;;;5054928;28;20218;-81
2022/09/27 05:39:51;;;;;;;2.90;1.40;;;;;;;;;;5055250;28;20719;-82
2022/09/27 05:42:20;;;;;;;1.98;0.95;;;;;;;;;;5048965;28;20197;-82
2022/09/27 05:44:47;;;;;;;1.35;1.35;;;;;;;;;;5054514;28;20218;-82
2022/09/27 05:47:15;;;;;;;2.88;1.60;;;;;;;;;;5056073;28;20255;-83
2022/09/27 05:49:43;;;;;;;1.58;1.40;;;;;;;;;;5053244;28;20661;-82
2022/09/27 05:52:11;;;;;;;1.10;1.10;;;;;;;;;;5058419;28;20190;-82
2022/09/27 05:54:39;;;;;;;1.65;1.55;;;;;;;;;;5054647;28;20218;-81
2022/09/27 05:57:07;;;;;;;1.13;1.02;;;;;;;;;;5052753;28;20222;-82
2022/09/27 05:59:35;;;;;;;2.45;1.27;;;;;;;;;;5054650;28;20197;-82
2022/09/27 06:02:02;;;;;;;1.98;1.30;;;;;;;;;;5047998;28;20639;-82
2022/09/27 06:04:30;;;;;;;2.17;1.20;;;;;;;;;;5054833;28;20693;-80
2022/09/27 06:06:58;;;;;;;0.90;0.90;;;;;;;;;;5055758;28;20204;-80
2022/09/27 06:09:27;;;;;;;1.10;1.10;;;;;;;;;;5057828;28;20197;-81
2022/09/27 06:11:56;;;;;;;1.00;0.90;;;;;;;;;;5058364;28;20193;-81
2022/09/27 06:14:23;;;;;;;1.50;1.40;;;;;;;;;;5058960;28;20584;-80
2022/09/27 06:16:53;;;;;;;2.10;1.20;;;;;;;;;;5059242;28;20588;-81
2022/09/27 06:19:21;;;;;;;1.42;1.33;;;;;;;;;;5048916;28;20225;-80
2022/09/27 06:21:50;;;;;;;1.33;1.23;;;;;;;;;;5057318;28;20838;-81
2022/09/27 06:24:18;;;;;;;1.00;1.00;;;;;;;;;;5058662;28;20221;-82
2022/09/27 06:26:45;;;;;;;0.93;0.85;;;;;;;;;;5058473;28;20923;-81
2022/09/27 06:29:14;;;;;;;1.40;1.30;;;;;;;;;;5054679;28;20229;-83
2022/09/27 06:31:42;;;;;;;1.00;1.00;;;;;;;;;;5058735;28;20256;-81
2022/09/27 06:34:09;;;;;;;0.75;0.75;;;;;;;;;;5057557;28;20252;-81
2022/09/27 06:36:37;;;;;;;0.90;0.90;;;;;;;;;;5057105;28;20232;-82
2022/09/27 06:39:05;;;;;;;0.88;0.88;;;;;;;;;;5058456;28;20257;-81
2022/09/27 06:41:34;;;;;;;1.27;1.17;;;;;;;;;;5059116;28;20627;-81
2022/09/27 06:44:02;;;;;;;2.28;1.27;;;;;;;;;;5057279;28;20214;-80
2022/09/27 06:46:31;;;;;;;0.98;0.98;;;;;;;;;;5056827;28;20244;-80
2022/09/27 06:48:59;;;;;;;1.35;1.27;;;;;;;;;;5055660;28;20616;-82
2022/09/27 06:51:27;;;;;;;1.38;1.27;;;;;;;;;;5054091;28;20559;-81
2022/09/27 06:53:54;;;;;;;3.22;2.25;;;;;;;;;;5057054;28;20730;-81
2022/09/27 06:56:22;;;;;;;2.53;2.33;;;;;;;;;;5054166;28;20261;-80
2022/09/27 07:01:36;;;;;;;1.63;1.52;;;;;;;;;;5051281;28;20582;-82
2022/09/27 07:04:04;;;;;;;1.30;1.20;;;;;;;;;;5051473;28;20218;-80
2022/09/27 07:06:33;;;;;;;1.73;1.63;;;;;;;;;;5058190;28;20201;-82
2022/09/27 07:09:01;;;;;;;2.30;1.33;;;;;;;;;;5056978;28;20208;-81
2022/09/27 07:11:28;;;;;;;1.00;1.00;;;;;;;;;;5055231;28;20233;-81
2022/09/27 07:13:56;;;;;;;1.33;1.15;;;;;;;;;;5049402;28;20279;-80
2022/09/27 07:16:24;;;;;;;1.13;1.10;;;;;;;;;;5057333;28;20271;-81
2022/09/27 07:18:53;;;;;;;5.55;2.17;;;;;;;;;;5054883;28;20222;-81
2022/09/27 07:21:20;;;;;;;2.08;1.33;;;;;;;;;;5055184;28;20206;-79
2022/09/27 07:23:48;;;;;;;0.95;0.95;;;;;;;;;;5059446;28;20197;-81
2022/09/27 07:26:16;;;;;;;1.58;1.30;;;;;;;;;;5056977;28;20201;-80
2022/09/27 07:28:43;;;;;;;1.10;1.00;;;;;;;;;;5054646;28;20195;-79
2022/09/27 07:31:12;;;;;;;1.67;1.38;;;;;;;;;;5052923;28;20198;-80
2022/09/27 07:33:39;;;;;;;2.35;1.40;;;;;;;;;;5055621;28;20620;-80
2022/09/27 07:36:10;;;;;;;1.20;1.10;;;;;;;;;;5046382;28;20200;-80
2022/09/27 07:38:38;;;;;;;1.15;1.15;;;;;;;;;;5055796;28;20224;-80
2022/09/27 07:41:09;;;;;;;1.48;1.38;;;;;;;;;;5056277;28;20248;-81
2022/09/27 07:43:37;;;;;;;1.27;1.20;;;;;;;;;;5056178;28;20230;-80
2022/09/27 07:46:05;;;;;;;1.65;1.27;;;;;;;;;;5053519;28;20249;-80
2022/09/27 07:48:33;;;;;;;2.22;1.20;;;;;;;;;;5055491;28;20190;-81
2022/09/27 07:51:00;;;;;;;1.10;1.10;;;;;;;;;;5055155;28;20201;-79
2022/09/27 07:53:29;;;;;;;1.33;1.20;;;;;;;;;;5055484;28;20638;-80
2022/09/27 07:55:57;;;;;;;1.42;1.33;;;;;;;;;;5048185;28;20257;-82
2022/09/27 07:58:25;;;;;;;1.42;1.25;;;;;;;;;;5055007;28;20939;-81
2022/09/27 08:00:55;;;;;;;1.73;1.20;;;;;;;;;;5056752;28;20636;-81
2022/09/27 08:03:22;;;;;;;1.33;1.23;;;;;;;;;;5057210;28;20205;-81
2022/09/27 08:05:50;;;;;;;1.20;1.10;;;;;;;;;;5055774;28;20237;-80
2022/09/27 08:08:18;;;;;;;1.17;1.08;;;;;;;;;;5057995;28;20226;-81
2022/09/27 08:10:47;;;;;;;1.40;1.30;;;;;;;;;;5056769;28;20205;-80
2022/09/27 08:13:18;;;;;;;1.70;1.60;;;;;;;;;;5057164;28;20228;-80
2022/09/27 08:15:47;;;;;;;2.63;1.52;;;;;;;;;;5045882;28;20297;-80
2022/09/27 08:18:15;;;;;;;3.13;1.52;;;;;;;;;;5051576;28;20765;-80
2022/09/27 08:20:43;;;;;;;1.63;1.13;;;;;;;;;;5057291;28;20634;-81
2022/09/27 08:23:10;;;;;;;1.42;1.33;;;;;;;;;;5057573;28;20228;-80
2022/09/27 08:25:38;;;;;;;2.17;1.10;;;;;;;;;;5057747;28;20217;-80
2022/09/27 08:28:08;;;;;;;1.50;1.40;;;;;;;;;;5056984;28;20289;-80
2022/09/27 08:30:37;;;;;;;1.88;1.52;;;;;;;;;;5055578;28;20221;-81
2022/09/27 08:33:04;;;;;;;3.17;2.05;;;;;;;;;;5056917;28;20625;-79
2022/09/27 08:35:33;;;;;;;1.50;1.40;;;;;;;;;;5054926;28;20218;-80
2022/09/27 08:38:04;;;;;;;1.52;1.42;;;;;;;;;;5056679;28;20259;-79
2022/09/27 08:40:44;;;;;;;2.22;2.05;;;;;;;;;;5045716;28;20284;-80
2022/09/27 08:43:20;;;;;;;7.85;2.42;;;;;;;;;;5045190;28;20202;-80
2022/09/27 08:46:03;;;;;;;1.60;1.50;;;;;;;;;;5049288;28;20927;-79
2022/09/27 08:48:31;;;;;;;2.03;1.85;;;;;;;;;;5046999;28;20198;-79
2022/09/27 08:50:59;;;;;;;3.05;1.98;;;;;;;;;;5053019;28;20221;-81
2022/09/27 08:53:30;;;;;;;1.73;1.63;;;;;;;;;;5054349;28;20190;-80
2022/09/27 08:56:02;;;;;;;2.13;1.85;;;;;;;;;;5038684;28;20215;-80
2022/09/27 08:58:34;;;;;;;2.15;1.92;;;;;;;;;;5038385;28;20221;-82
2022/09/27 09:01:05;;;;;;;2.95;2.08;;;;;;;;;;5053251;28;20300;-80
2022/09/27 09:03:36;;;;;;;2.83;2.10;;;;;;;;;;5052982;28;20209;-81
2022/09/27 09:06:11;;;;;;;2.63;1.90;;;;;;;;;;5047191;28;20218;-82
2022/09/27 09:08:59;;;;;;;1.40;1.30;;;;;;;;;;5051705;28;20197;-80
2022/09/27 09:15:13;;;;;;;1.98;1.70;;;;;;;;;;5042409;28;20611;-82
2022/09/27 09:17:57;;;;;;;4.00;1.90;;;;;;;;;;5036867;28;20213;-82
2022/09/27 09:20:39;;;;;;;4.78;2.30;;;;;;;;;;5039031;28;20225;-82
2022/09/27 09:23:44;;;;;;;2.75;2.50;;;;;;;;;;5041886;28;20657;-82
2022/09/27 09:26:18;;;;;;;2.60;2.08;;;;;;;;;;5045431;28;20724;-82
2022/09/27 09:29:01;;;;;;;2.33;2.05;;;;;;;;;;5039004;28;20213;-80
2022/09/27 09:31:38;;;;;;;3.47;2.22;;;;;;;;;;5038701;28;20626;-82
2022/09/27 09:34:14;;;;;;;4.53;1.95;;;;;;;;;;5040832;28;20271;-83
2022/09/27 09:36:46;;;;;;;2.17;1.83;;;;;;;;;;5044078;28;20202;-82
2022/09/27 09:39:18;;;;;;;3.25;1.70;;;;;;;;;;5044378;28;20705;-82
2022/09/27 09:42:02;;;;;;;1.20;1.10;;;;;;;;;;5049576;28;20693;-82
2022/09/27 09:44:34;;;;;;;3.70;2.63;;;;;;;;;;5046498;28;20740;-82
2022/09/27 09:47:04;;;;;;;2.20;1.67;;;;;;;;;;5049521;28;20272;-81
2022/09/27 09:49:35;;;;;;;2.13;1.77;;;;;;;;;;5050445;28;20708;-81
2022/09/27 09:52:07;;;;;;;1.98;1.60;;;;;;;;;;5052530;28;20202;-82
2022/09/27 09:54:40;;;;;;;1.42;1.30;;;;;;;;;;5054107;28;20654;-82
2022/09/27 09:57:14;;;;;;;2.92;1.67;;;;;;;;;;5046698;28;20237;-81
2022/09/27 09:59:45;;;;;;;1.73;1.63;;;;;;;;;;5036294;28;20222;-81
2022/09/27 10:02:28;;;;;;;1.55;1.30;;;;;;;;;;5045317;28;20230;-81
2022/09/27 10:04:56;;;;;;;1.60;1.50;;;;;;;;;;5044382;28;20213;-81
2022/09/27 10:07:25;;;;;;;2.03;1.60;;;;;;;;;;5043605;28;20241;-81
2022/09/27 10:09:54;;;;;;;3.10;1.90;;;;;;;;;;5045076;28;20220;-81
2022/09/27 10:12:22;;;;;;;1.60;1.50;;;;;;;;;;5048488;28;20202;-80
2022/09/27 10:14:51;;;;;;;2.97;1.65;;;;;;;;;;5042823;28;20275;-80
2022/09/27 10:17:23;;;;;;;2.55;1.50;;;;;;;;;;5042675;28;20202;-80
2022/09/27 10:19:53;;;;;;;1.67;1.58;;;;;;;;;;5041449;28;20213;-79
2022/09/27 10:22:27;;;;;;;2.53;1.90;;;;;;;;;;5043726;28;20202;-80
2022/09/27 10:24:58;;;;;;;1.75;1.65;;;;;;;;;;5046132;28;20236;-80
2022/09/27 10:27:26;;;;;;;0.98;0.98;;;;;;;;;;5046222;28;20255;-79
2022/09/27 10:29:58;;;;;;;0.88;0.88;;;;;;;;;;5041137;28;20257;-80
2022/09/27 10:32:32;;;;;;;1.92;1.10;;;;;;;;;;5041831;28;20197;-80
2022/09/27 10:35:22;;;;;;;1.15;1.05;;;;;;;;;;5035393;28;20301;-81
2022/09/27 10:37:49;;;;;;;0.98;0.98;;;;;;;;;;5047356;28;20630;-80
2022/09/27 10:40:32;;;;;;;1.77;1.40;;;;;;;;;;5041084;28;20224;-79
2022/09/27 10:43:00;;;;;;;2.45;1.30;;;;;;;;;;5044056;28;20212;-80
2022/09/27 10:45:31;;;;;;;1.27;1.17;;;;;;;;;;5043998;28;20311;-82
2022/09/27 10:48:02;;;;;;;1.65;1.50;;;;;;;;;;5033470;28;20300;-82
2022/09/27 10:50:32;;;;;;;1.45;1.02;;;;;;;;;;5035788;28;20230;-82
2022/09/27 10:53:05;;;;;;;2.17;1.30;;;;;;;;;;5031699;28;20198;-82
2022/09/27 10:55:35;;;;;;;1.33;1.23;;;;;;;;;;5045737;28;20221;-81
2022/09/27 10:58:04;;;;;;;2.88;1.35;;;;;;;;;;5044113;28;20591;-81
2022/09/27 11:00:34;;;;;;;1.02;0.90;;;;;;;;;;5045161;28;20261;-82
2022/09/27 11:03:06;;;;;;;1.98;1.27;;;;;;;;;;5049735;28;20661;-82
2022/09/27 11:05:37;;;;;;;1.00;1.00;;;;;;;;;;5049388;28;20222;-82
2022/09/27 11:08:25;;;;;;;1.05;1.05;;;;;;;;;;5041875;28;20213;-82
2022/09/27 11:11:06;;;;;;;2.72;1.00;;;;;;;;;;5047907;28;20202;-82
2022/09/27 11:13:34;;;;;;;1.88;1.33;;;;;;;;;;5045598;28;20209;-82
2022/09/27 11:16:21;;;;;;;1.33;1.23;;;;;;;;;;5053506;28;20295;-82
2022/09/27 11:19:00;;;;;;;1.08;0.95;;;;;;;;;;5045047;28;20198;-82
2022/09/27 11:21:39;;;;;;;1.40;0.98;;;;;;;;;;5053609;28;20593;-81
2022/09/27 11:24:36;;;;;;;0.90;0.90;;;;;;;;;;5040646;28;20593;-81
2022/09/27 11:27:14;;;;;;;0.70;0.70;;;;;;;;;;5045288;28;20264;-83
2022/09/27 11:29:59;;;;;;;1.58;1.15;;;;;;;;;;5033712;28;20674;-82
2022/09/27 11:32:43;;;;;;;2.25;1.60;;;;;;;;;;5051062;28;20301;-81
2022/09/27 11:35:40;;;;;;;3.00;1.10;;;;;;;;;;5053683;28;20221;-82
2022/09/27 11:38:23;;;;;;;0.80;0.80;;;;;;;;;;5041279;28;20217;-82
2022/09/27 11:41:16;;;;;;;0.95;0.85;;;;;;;;;;5043898;28;20220;-81
2022/09/27 11:44:20;;;;;;;1.00;1.00;;;;;;;;;;5040185;28;20233;-82
2022/09/27 11:46:57;;;;;;;0.63;0.63;;;;;;;;;;5041239;28;20229;-81
2022/09/27 11:49:56;;;;;;;0.70;0.70;;;;;;;;;;5047254;28;20553;-82
2022/09/27 11:52:38;;;;;;;0.80;0.80;;;;;;;;;;5048345;28;20240;-82
2022/09/27 11:55:20;;;;;;;1.90;1.80;;;;;;;;;;5046830;28;20222;-81
2022/09/27 11:57:59;;;;;;;1.50;1.45;;;;;;;;;;5044673;28;20276;-82
2022/09/27 12:00:39;;;;;;;2.85;2.58;;;;;;;;;;5043609;28;20312;-84
2022/09/27 12:03:39;;;;;;;1.38;1.20;;;;;;;;;;5045675;28;20310;-80
2022/09/27 12:06:10;;;;;;;1.02;1.02;;;;;;;;;;5041803;28;20209;-82
2022/09/27 12:08:53;;;;;;;1.15;1.15;;;;;;;;;;5036361;28;20202;-83
2022/09/27 12:11:25;;;;;;;0.93;0.85;;;;;;;;;;5033671;28;20200;-83
2022/09/27 12:13:58;;;;;;;1.10;0.93;;;;;;;;;;5038693;28;20194;-83
2022/09/27 12:16:27;;;;;;;0.60;0.60;;;;;;;;;;5048609;28;20739;-83
2022/09/27 12:18:55;;;;;;;0.60;0.60;;;;;;;;;;5043790;28;20284;-83
2022/09/27 12:21:23;;;;;;;1.30;0.93;;;;;;;;;;5041136;28;20305;-82
2022/09/27 12:23:56;;;;;;;1.10;1.10;;;;;;;;;;5045233;28;20292;-82
2022/09/27 12:26:28;;;;;;;0.60;0.50;;;;;;;;;;5053796;28;20202;-83
2022/09/27 12:28:58;;;;;;;0.88;0.88;;;;;;;;;;5051720;28;20201;-82
2022/09/27 12:31:30;;;;;;;0.70;0.70;;;;;;;;;;5050642;28;20212;-83
2022/09/27 12:34:11;;;;;;;1.00;0.90;;;;;;;;;;5037970;28;20706;-82
2022/09/27 12:36:44;;;;;;;0.50;0.50;;;;;;;;;;5039906;28;20198;-81
2022/09/27 12:39:20;;;;;;;0.80;0.80;;;;;;;;;;5041406;28;20198;-82
2022/09/27 12:41:55;;;;;;;0.90;0.90;;;;;;;;;;5052133;28;20221;-82
2022/09/27 12:44:23;;;;;;;1.00;1.00;;;;;;;;;;5046835;28;20220;-83
2022/09/27 12:47:00;;;;;;;0.85;0.75;;;;;;;;;;5044103;28;20300;-80
2022/09/27 12:49:38;;;;;;;0.80;0.80;;;;;;;;;;5053274;28;20205;-84
2022/09/27 12:52:10;;;;;;;0.70;0.70;;;;;;;;;;5053510;28;20203;-82
2022/09/27 12:55:15;;;;;;;1.95;0.80;;;;;;;;;;5051209;28;20233;-82
2022/09/27 12:57:53;;;;;;;0.68;0.68;;;;;;;;;;5033198;28;20194;-82
2022/09/27 13:00:22;;;;;;;2.88;1.05;;;;;;;;;;5041648;28;20197;-81
2022/09/27 13:03:20;;;;;;;0.80;0.80;;;;;;;;;;5044245;28;20221;-82
2022/09/27 13:06:32;;;;;;;0.80;0.80;;;;;;;;;;5051325;28;20224;-82
2022/09/27 13:09:27;;;;;;;1.15;1.13;;;;;;;;;;5051982;28;20662;-82
2022/09/27 13:12:03;;;;;;;0.82;0.82;;;;;;;;;;5043479;28;20203;-82
2022/09/27 13:14:34;;;;;;;0.75;0.75;;;;;;;;;;5040440;28;22069;-82
2022/09/27 13:17:01;;;;;;;0.50;0.50;;;;;;;;;;5042102;28;20213;-81
2022/09/27 13:19:42;;;;;;;3.40;1.15;;;;;;;;;;5051509;28;20285;-82
2022/09/27 13:22:26;;;;;;;1.20;0.70;;;;;;;;;;5044081;28;20255;-83
2022/09/27 13:24:54;;;;;;;0.70;0.70;;;;;;;;;;5040686;28;20217;-81
2022/09/27 13:27:43;;;;;;;0.77;0.77;;;;;;;;;;5048469;28;20197;-81
2022/09/27 13:30:47;;;;;;;0.70;0.70;;;;;;;;;;5046793;28;20302;-81
2022/09/27 13:33:47;;;;;;;0.80;0.80;;;;;;;;;;5046371;28;20232;-81
2022/09/27 13:36:32;;;;;;;0.88;0.70;;;;;;;;;;5051661;28;20203;-80
2022/09/27 13:39:20;;;;;;;0.50;0.50;;;;;;;;;;5039679;28;20198;-80
2022/09/27 13:42:19;;;;;;;0.50;0.50;;;;;;;;;;5040233;28;20766;-81
2022/09/27 13:45:08;;;;;;;0.50;0.50;;;;;;;;;;5032526;28;20232;-81
2022/09/27 13:47:40;;;;;;;0.60;0.60;;;;;;;;;;5041241;28;20248;-81
2022/09/27 13:50:23;;;;;;;0.60;0.60;;;;;;;;;;5038634;28;20665;-81
2022/09/27 13:53:01;;;;;;;0.60;0.60;;;;;;;;;;5051892;28;20209;-81
2022/09/27 13:55:45;;;;;;;0.90;0.90;;;;;;;;;;5044302;28;20666;-81
2022/09/27 13:58:49;;;;;;;0.60;0.60;;;;;;;;;;5038547;28;20586;-81
2022/09/27 14:01:27;;;;;;;0.90;0.90;;;;;;;;;;5006298;28;20211;-81
2022/09/27 14:03:57;;;;;;;0.80;0.80;;;;;;;;;;5050399;28;20201;-81
2022/09/27 14:06:29;;;;;;;0.77;0.77;;;;;;;;;;5044203;28;20621;-81
2022/09/27 14:08:59;;;;;;;1.70;1.20;;;;;;;;;;5039917;28;20222;-82
2022/09/27 14:11:30;;;;;;;1.40;1.30;;;;;;;;;;5036351;28;20225;-82
2022/09/27 14:13:58;;;;;;;1.10;1.00;;;;;;;;;;5031862;28;20291;-81
2022/09/27 14:16:33;;;;;;;1.60;1.42;;;;;;;;;;5044740;28;20240;-82
2022/09/27 14:19:01;;;;;;;2.75;0.80;;;;;;;;;;5043305;28;20286;-82
2022/09/27 14:21:32;;;;;;;0.88;0.88;;;;;;;;;;5050651;28;20202;-81
2022/09/27 14:24:29;;;;;;;0.70;0.70;;;;;;;;;;5051653;28;20288;-82
2022/09/27 14:27:16;;;;;;;0.63;0.63;;;;;;;;;;5047508;28;20256;-82
2022/09/27 14:29:48;;;;;;;0.70;0.70;;;;;;;;;;5040672;28;20201;-82
2022/09/27 14:32:19;;;;;;;0.60;0.60;;;;;;;;;;5047426;28;20878;-82
2022/09/27 14:35:01;;;;;;;0.55;0.55;;;;;;;;;;5047875;28;20210;-81
2022/09/27 14:37:28;;;;;;;1.00;1.00;;;;;;;;;;5046808;28;20200;-82
2022/09/27 14:39:59;;;;;;;0.50;0.50;;;;;;;;;;5035399;28;20248;-82
2022/09/27 14:42:28;;;;;;;0.60;0.60;;;;;;;;;;5046821;28;20221;-81
2022/09/27 14:45:01;;;;;;;0.70;0.70;;;;;;;;;;5053448;28;20592;-81
2022/09/27 14:47:30;;;;;;;1.20;0.82;;;;;;;;;;5045934;28;20209;-81
2022/09/27 14:50:00;;;;;;;0.70;0.70;;;;;;;;;;5042961;28;20190;-81
2022/09/27 14:52:30;;;;;;;0.70;0.70;;;;;;;;;;5043914;28;20734;-82
2022/09/27 14:55:04;;;;;;;0.75;0.75;;;;;;;;;;5054523;28;20220;-82
2022/09/27 14:57:35;;;;;;;0.60;0.60;;;;;;;;;;5046885;28;20205;-81
2022/09/27 15:00:17;;;;;;;0.70;0.70;;;;;;;;;;5035928;28;20626;-82
2022/09/27 15:02:46;;;;;;;0.63;0.63;;;;;;;;;;5045795;28;20239;-83
2022/09/27 15:05:16;;;;;;;1.02;0.98;;;;;;;;;;5039015;28;20822;-82
2022/09/27 15:07:45;;;;;;;1.20;1.20;;;;;;;;;;5036552;28;20220;-82
2022/09/27 15:10:17;;;;;;;0.90;0.90;;;;;;;;;;5042770;28;20212;-82
2022/09/27 15:12:47;;;;;;;1.45;0.98;;;;;;;;;;5050541;28;20599;-83
2022/09/27 15:15:18;;;;;;;1.40;1.02;;;;;;;;;;5045846;28;20305;-82
2022/09/27 15:17:48;;;;;;;0.80;0.80;;;;;;;;;;5043151;28;20209;-82
2022/09/27 15:20:26;;;;;;;0.90;0.90;;;;;;;;;;5053170;28;20214;-83
2022/09/27 15:22:55;;;;;;;1.05;0.80;;;;;;;;;;5037712;28;20217;-81
2022/09/27 15:25:31;;;;;;;0.80;0.80;;;;;;;;;;5045506;28;20221;-81
2022/09/27 15:27:59;;;;;;;0.77;0.77;;;;;;;;;;5043438;28;20209;-82
2022/09/27 15:30:33;;;;;;;0.80;0.80;;;;;;;;;;5050549;28;20202;-83
2022/09/27 15:33:02;;;;;;;0.60;0.60;;;;;;;;;;5042397;28;20625;-82